createdAt,value
2018-11-25T00:02:24.369Z,74.49
2018-11-25T00:04:54.716Z,74.21
2018-11-25T00:07:25.062Z,74.29
2018-11-25T00:09:55.305Z,74.39
2018-11-25T00:12:25.705Z,74.50
2018-11-25T00:14:56.301Z,74.38
2018-11-25T00:17:26.335Z,74.35
2018-11-25T00:19:56.261Z,74.36
2018-11-25T00:22:26.394Z,74.54
2018-11-25T00:24:57.681Z,74.36
2018-11-25T00:27:27.261Z,74.25
2018-11-25T00:29:57.194Z,74.30
2018-11-25T00:32:27.501Z,74.12
2018-11-25T00:34:57.293Z,73.94
2018-11-25T00:37:27.932Z,74.12
2018-11-25T00:39:58.113Z,74.03
2018-11-25T00:42:28.531Z,73.77
2018-11-25T00:44:58.079Z,73.75
2018-11-25T00:47:28.080Z,73.87
2018-11-25T00:49:58.372Z,73.69
2018-11-25T00:52:28.663Z,73.48
2018-11-25T00:54:59.727Z,73.24
2018-11-25T00:57:29.291Z,73.20
2018-11-25T00:59:59.914Z,73.09
2018-11-25T01:02:30.132Z,73.11
2018-11-25T01:04:59.983Z,73.02
2018-11-25T01:07:32.523Z,72.99
2018-11-25T01:10:02.352Z,73.00
2018-11-25T01:12:32.169Z,73.19
2018-11-25T01:15:02.126Z,73.01
2018-11-25T01:17:32.577Z,73.20
2018-11-25T01:20:02.270Z,73.11
2018-11-25T01:22:33.256Z,73.19
2018-11-25T01:25:03.421Z,73.21
2018-11-25T01:27:33.270Z,73.33
2018-11-25T01:30:03.661Z,73.23
2018-11-25T01:32:33.901Z,73.21
2018-11-25T01:35:04.097Z,73.23
2018-11-25T01:37:34.897Z,73.24
2018-11-25T01:40:05.547Z,73.33
2018-11-25T01:42:36.380Z,73.16
2018-11-25T01:45:07.169Z,73.40
2018-11-25T01:47:37.193Z,73.23
2018-11-25T01:50:08.452Z,73.22
2018-11-25T01:52:38.344Z,73.25
2018-11-25T01:55:10.888Z,73.37
2018-11-25T01:57:40.859Z,73.38
2018-11-25T02:00:15.175Z,73.59
2018-11-25T02:02:45.097Z,73.34
2018-11-25T02:05:16.509Z,73.56
2018-11-25T02:07:46.840Z,73.73
2018-11-25T02:10:17.543Z,73.44
2018-11-25T02:12:47.250Z,73.18
2018-11-25T02:15:17.589Z,73.17
2018-11-25T02:17:47.710Z,73.16
2018-11-25T02:20:25.034Z,73.05
2018-11-25T02:22:56.444Z,72.75
2018-11-25T02:25:28.675Z,72.38
2018-11-25T02:27:58.991Z,72.33
2018-11-25T02:30:28.916Z,72.66
2018-11-25T02:32:58.973Z,72.75
2018-11-25T02:35:28.500Z,73.18
2018-11-25T02:37:58.693Z,72.97
2018-11-25T02:40:28.392Z,73.23
2018-11-25T02:42:58.671Z,73.76
2018-11-25T02:45:28.830Z,74.33
2018-11-25T02:47:58.966Z,73.99
2018-11-25T02:50:30.046Z,74.12
2018-11-25T02:53:04.481Z,74.19
2018-11-25T02:55:34.228Z,74.33
2018-11-25T02:58:04.677Z,74.44
2018-11-25T03:00:34.500Z,74.65
2018-11-25T03:03:04.943Z,74.65
2018-11-25T03:05:34.833Z,74.87
2018-11-25T03:08:04.620Z,74.74
2018-11-25T03:10:35.695Z,75.05
2018-11-25T03:13:05.532Z,74.96
2018-11-25T03:15:35.508Z,75.12
2018-11-25T03:18:06.012Z,75.07
2018-11-25T03:20:35.794Z,75.09
2018-11-25T03:23:06.691Z,75.08
2018-11-25T03:25:37.091Z,75.16
2018-11-25T03:28:06.989Z,75.27
2018-11-25T03:30:37.772Z,75.40
2018-11-25T03:33:08.701Z,75.35
2018-11-25T03:35:38.378Z,75.65
2018-11-25T03:38:08.156Z,75.53
2018-11-25T03:40:39.193Z,75.82
2018-11-25T03:43:09.208Z,75.84
2018-11-25T03:45:39.813Z,75.96
2018-11-25T03:48:10.058Z,76.16
2018-11-25T03:50:39.889Z,76.26
2018-11-25T03:53:10.981Z,76.03
2018-11-25T03:55:40.701Z,76.14
2018-11-25T03:58:10.949Z,76.25
2018-11-25T04:00:40.773Z,76.48
2018-11-25T04:03:11.050Z,76.18
2018-11-25T04:05:40.822Z,76.52
2018-11-25T04:08:10.363Z,76.15
2018-11-25T04:10:40.420Z,76.29
2018-11-25T04:13:11.766Z,76.35
2018-11-25T04:15:41.939Z,76.72
2018-11-25T04:18:11.884Z,76.97
2018-11-25T04:20:41.874Z,76.86
2018-11-25T04:23:11.923Z,77.07
2018-11-25T04:25:41.892Z,76.96
2018-11-25T04:28:11.689Z,76.71
2018-11-25T04:30:41.413Z,76.90
2018-11-25T04:33:14.539Z,76.54
2018-11-25T04:35:44.358Z,76.80
2018-11-25T04:38:14.021Z,76.95
2018-11-25T04:40:45.342Z,77.21
2018-11-25T04:43:15.289Z,77.05
2018-11-25T04:45:45.156Z,76.85
2018-11-25T04:48:15.333Z,76.94
2018-11-25T04:50:45.310Z,76.73
2018-11-25T04:53:15.111Z,76.77
2018-11-25T04:55:45.268Z,76.84
2018-11-25T04:58:15.080Z,76.76
2018-11-25T05:00:45.093Z,76.74
2018-11-25T05:03:14.807Z,76.65
2018-11-25T05:05:44.708Z,76.56
2018-11-25T05:08:15.166Z,76.49
2018-11-25T05:10:44.941Z,76.34
2018-11-25T05:13:15.649Z,76.33
2018-11-25T05:15:45.716Z,76.53
2018-11-25T05:18:15.445Z,76.21
2018-11-25T05:20:45.422Z,76.46
2018-11-25T05:23:15.659Z,76.18
2018-11-25T05:25:45.237Z,76.31
2018-11-25T05:28:15.103Z,76.32
2018-11-25T05:30:45.263Z,76.31
2018-11-25T05:33:16.155Z,76.06
2018-11-25T05:35:46.163Z,76.22
2018-11-25T05:38:16.761Z,76.33
2018-11-25T05:40:46.958Z,76.39
2018-11-25T05:43:18.530Z,76.22
2018-11-25T05:45:48.919Z,76.26
2018-11-25T05:48:19.175Z,76.34
2018-11-25T05:50:48.921Z,76.38
2018-11-25T05:53:19.231Z,76.14
2018-11-25T05:55:49.122Z,76.35
2018-11-25T05:58:19.197Z,76.30
2018-11-25T06:00:48.878Z,76.24
2018-11-25T06:03:20.051Z,76.25
2018-11-25T06:05:49.984Z,76.60
2018-11-25T06:08:20.278Z,76.48
2018-11-25T06:10:51.186Z,76.32
2018-11-25T06:13:21.685Z,76.50
2018-11-25T06:15:52.385Z,76.41
2018-11-25T06:18:22.252Z,76.12
2018-11-25T06:20:52.362Z,76.27
2018-11-25T06:23:22.970Z,76.50
2018-11-25T06:25:53.635Z,76.82
2018-11-25T06:28:23.596Z,76.27
2018-11-25T06:30:53.422Z,76.39
2018-11-25T06:33:23.286Z,76.55
2018-11-25T06:35:53.668Z,76.55
2018-11-25T06:38:24.841Z,76.67
2018-11-25T06:40:55.052Z,77.02
2018-11-25T06:43:25.491Z,76.95
2018-11-25T06:45:55.460Z,77.11
2018-11-25T06:48:26.318Z,77.21
2018-11-25T06:50:56.030Z,77.27
2018-11-25T06:53:27.214Z,77.38
2018-11-25T06:55:57.375Z,77.12
2018-11-25T06:58:27.493Z,77.18
2018-11-25T07:00:58.327Z,77.35
2018-11-25T07:03:28.489Z,77.36
2018-11-25T07:05:58.437Z,77.57
2018-11-25T07:08:28.746Z,77.57
2018-11-25T07:10:58.860Z,77.67
2018-11-25T07:13:29.613Z,77.42
2018-11-25T07:16:02.882Z,77.56
2018-11-25T07:18:33.465Z,77.55
2018-11-25T07:21:03.281Z,77.38
2018-11-25T07:23:33.704Z,77.21
2018-11-25T07:26:03.397Z,77.45
2018-11-25T07:28:33.091Z,77.18
2018-11-25T07:31:03.652Z,77.38
2018-11-25T07:33:33.709Z,77.08
2018-11-25T07:36:04.138Z,77.40
2018-11-25T07:38:34.254Z,76.91
2018-11-25T07:41:03.886Z,76.92
2018-11-25T07:43:33.777Z,76.44
2018-11-25T07:46:03.916Z,75.84
2018-11-25T07:48:33.622Z,76.05
2018-11-25T07:51:05.409Z,75.81
2018-11-25T07:53:36.515Z,75.37
2018-11-25T07:56:07.455Z,75.39
2018-11-25T07:58:37.828Z,75.17
2018-11-25T08:01:09.141Z,75.01
2018-11-25T08:03:39.200Z,74.70
2018-11-25T08:06:10.256Z,74.55
2018-11-25T08:10:04.287Z,74.26
2018-11-25T08:12:34.522Z,73.91
2018-11-25T08:15:05.188Z,74.16
2018-11-25T08:17:35.809Z,74.00
2018-11-25T08:20:08.271Z,73.70
2018-11-25T08:22:38.568Z,73.75
2018-11-25T08:25:12.780Z,73.84
2018-11-25T08:27:44.249Z,73.90
2018-11-25T08:30:17.982Z,74.28
2018-11-25T08:32:48.361Z,74.55
2018-11-25T08:35:20.173Z,74.75
2018-11-25T08:37:51.829Z,74.70
2018-11-25T08:40:24.286Z,74.64
2018-11-25T08:42:55.514Z,74.78
2018-11-25T08:45:25.598Z,74.66
2018-11-25T08:47:57.863Z,74.43
2018-11-25T08:50:28.225Z,73.60
2018-11-25T08:56:32.920Z,73.12
2018-11-25T08:59:03.460Z,72.80
2018-11-25T09:01:35.825Z,73.01
2018-11-25T09:04:08.236Z,72.51
2018-11-25T09:06:38.639Z,72.44
2018-11-25T09:09:10.185Z,72.22
2018-11-25T09:11:57.218Z,72.12
2018-11-25T09:14:31.468Z,71.56
2018-11-25T09:17:02.876Z,71.59
2018-11-25T09:19:33.810Z,71.22
2018-11-25T09:22:07.566Z,70.90
2018-11-25T09:24:42.235Z,70.53
2018-11-25T09:27:20.778Z,71.17
2018-11-25T09:30:11.801Z,70.76
2018-11-25T09:32:57.016Z,70.85
2018-11-25T09:35:43.707Z,71.37
2018-11-25T09:38:36.383Z,70.89
2018-11-25T09:41:06.766Z,70.75
2018-11-25T09:43:36.390Z,70.65
2018-11-25T09:46:07.436Z,69.95
2018-11-25T09:48:37.477Z,70.12
2018-11-25T09:51:08.285Z,70.08
2018-11-25T09:53:38.348Z,69.48
2018-11-25T09:56:08.497Z,69.98
2018-11-25T09:58:38.061Z,69.85
2018-11-25T10:01:08.591Z,69.73
2018-11-25T10:03:40.194Z,70.28
2018-11-25T10:06:13.908Z,70.62
2018-11-25T10:08:44.371Z,71.44
2018-11-25T10:11:18.045Z,71.28
2018-11-25T10:13:48.288Z,71.04
2018-11-25T10:16:19.602Z,71.49
2018-11-25T10:18:50.388Z,71.64
2018-11-25T10:21:21.278Z,71.19
2018-11-25T10:23:54.238Z,70.64
2018-11-25T10:26:28.410Z,70.93
2018-11-25T10:29:04.119Z,70.19
2018-11-25T10:31:36.967Z,69.70
2018-11-25T10:34:15.237Z,69.10
2018-11-25T10:36:46.783Z,69.00
2018-11-25T10:39:37.664Z,68.75
2018-11-25T10:42:10.159Z,68.65
2018-11-25T10:44:41.711Z,68.72
2018-11-25T10:47:11.458Z,69.31
2018-11-25T10:49:44.198Z,68.43
2018-11-25T10:52:16.511Z,69.15
2018-11-25T10:54:47.267Z,68.85
2018-11-25T10:57:20.257Z,68.79
2018-11-25T10:59:54.017Z,69.09
2018-11-25T11:02:31.035Z,68.56
2018-11-25T11:05:07.106Z,68.79
2018-11-25T11:07:44.416Z,67.96
2018-11-25T11:10:16.148Z,68.13
2018-11-25T11:12:47.787Z,67.96
2018-11-25T11:15:19.151Z,67.48
2018-11-25T11:17:49.198Z,67.34
2018-11-25T11:20:19.601Z,67.87
2018-11-25T11:22:51.424Z,67.42
2018-11-25T11:25:21.044Z,67.53
2018-11-25T11:27:50.797Z,67.66
2018-11-25T11:30:20.745Z,67.40
2018-11-25T11:32:56.075Z,67.57
2018-11-25T11:35:28.925Z,67.31
2018-11-25T11:38:01.448Z,67.49
2018-11-25T11:40:34.766Z,68.24
2018-11-25T11:43:06.728Z,68.69
2018-11-25T11:45:36.777Z,69.44
2018-11-25T11:48:08.164Z,69.64
2018-11-25T11:50:38.505Z,69.96
2018-11-25T11:53:08.722Z,70.62
2018-11-25T11:55:38.311Z,70.92
2018-11-25T11:58:08.745Z,71.54
2018-11-25T12:00:39.450Z,71.41
2018-11-25T12:03:10.077Z,71.56
2018-11-25T12:05:40.317Z,71.56
2018-11-25T12:08:10.123Z,71.48
2018-11-25T12:10:39.952Z,71.63
2018-11-25T12:13:10.279Z,71.96
2018-11-25T12:15:41.133Z,71.65
2018-11-25T12:18:11.735Z,71.71
2018-11-25T12:20:41.548Z,71.53
2018-11-25T12:23:14.700Z,71.42
2018-11-25T12:25:44.183Z,71.63
2018-11-25T12:28:14.190Z,71.76
2018-11-25T12:30:44.675Z,71.49
2018-11-25T12:33:15.240Z,71.49
2018-11-25T12:35:45.469Z,71.50
2018-11-25T12:38:16.614Z,71.13
2018-11-25T12:40:46.573Z,71.32
2018-11-25T12:43:16.892Z,71.28
2018-11-25T12:45:46.545Z,70.81
2018-11-25T12:48:16.687Z,70.77
2018-11-25T12:50:46.442Z,70.41
2018-11-25T12:53:17.149Z,70.65
2018-11-25T12:55:47.243Z,69.94
2018-11-25T12:58:17.766Z,70.04
2018-11-25T13:00:49.607Z,70.26
2018-11-25T13:03:22.069Z,69.71
2018-11-25T13:05:51.975Z,70.15
2018-11-25T13:08:21.897Z,69.85
2018-11-25T13:10:52.224Z,69.77
2018-11-25T13:13:21.824Z,69.60
2018-11-25T13:15:51.673Z,70.12
2018-11-25T13:18:21.864Z,70.05
2018-11-25T13:20:51.935Z,70.31
2018-11-25T13:24:45.960Z,70.02
2018-11-25T13:27:16.156Z,70.08
2018-11-25T13:29:46.474Z,70.09
2018-11-25T13:32:16.598Z,69.81
2018-11-25T13:34:47.366Z,70.58
2018-11-25T13:37:17.762Z,70.19
2018-11-25T13:39:47.381Z,70.01
2018-11-25T13:42:18.698Z,70.22
2018-11-25T13:44:47.419Z,71.02
2018-11-25T13:47:17.386Z,70.60
2018-11-25T13:49:47.450Z,71.09
2018-11-25T13:52:18.683Z,70.81
2018-11-25T13:54:48.604Z,71.09
2018-11-25T13:57:19.488Z,71.89
2018-11-25T13:59:49.794Z,71.96
2018-11-25T14:02:19.547Z,71.50
2018-11-25T14:04:49.437Z,71.66
2018-11-25T14:07:19.236Z,71.99
2018-11-25T14:09:48.896Z,72.10
2018-11-25T14:12:18.431Z,72.83
2018-11-25T14:14:48.237Z,72.81
2018-11-25T14:19:46.831Z,73.20
2018-11-25T14:22:17.019Z,73.34
2018-11-25T14:24:47.726Z,73.42
2018-11-25T14:27:17.564Z,72.99
2018-11-25T14:29:48.211Z,73.70
2018-11-25T14:32:18.669Z,73.77
2018-11-25T14:34:48.636Z,73.75
2018-11-25T14:37:18.588Z,73.92
2018-11-25T14:39:48.696Z,74.07
2018-11-25T14:42:18.495Z,73.99
2018-11-25T14:44:53.938Z,74.49
2018-11-25T14:47:23.945Z,74.18
2018-11-25T14:49:53.917Z,74.26
2018-11-25T14:52:24.264Z,74.64
2018-11-25T14:54:53.929Z,74.32
2018-11-25T14:57:23.879Z,74.62
2018-11-25T14:59:54.032Z,75.00
2018-11-25T15:02:24.138Z,74.98
2018-11-25T15:04:55.617Z,74.85
2018-11-25T15:07:25.528Z,75.21
2018-11-25T15:09:55.555Z,75.08
2018-11-25T15:12:26.174Z,75.80
2018-11-25T15:14:56.539Z,75.61
2018-11-25T15:17:26.959Z,75.85
2018-11-25T15:19:57.223Z,75.44
2018-11-25T15:22:27.327Z,75.78
2018-11-25T15:24:57.510Z,75.85
2018-11-25T15:27:28.290Z,75.91
2018-11-25T15:29:58.066Z,76.44
2018-11-25T15:32:28.401Z,76.54
2018-11-25T15:34:58.856Z,76.58
2018-11-25T15:37:31.378Z,76.42
2018-11-25T15:40:02.166Z,76.80
2018-11-25T15:42:32.963Z,76.85
2018-11-25T15:45:02.597Z,76.91
2018-11-25T15:47:32.479Z,76.76
2018-11-25T15:50:02.955Z,76.74
2018-11-25T15:52:32.554Z,77.08
2018-11-25T15:55:02.354Z,77.28
2018-11-25T15:57:32.932Z,77.33
2018-11-25T16:00:11.911Z,77.38
2018-11-25T16:02:42.478Z,77.42
2018-11-25T16:05:16.905Z,77.45
2018-11-25T16:07:47.880Z,77.48
2018-11-25T16:10:18.156Z,77.72
2018-11-25T16:12:51.465Z,77.82
2018-11-25T16:15:23.830Z,77.88
2018-11-25T16:17:54.118Z,77.98
2018-11-25T16:20:26.558Z,78.02
2018-11-25T16:23:00.710Z,77.95
2018-11-25T16:25:49.534Z,78.11
2018-11-25T16:28:28.879Z,78.01
2018-11-25T16:31:00.287Z,77.98
2018-11-25T16:33:31.040Z,77.93
2018-11-25T16:36:00.745Z,78.30
2018-11-25T16:38:31.902Z,78.04
2018-11-25T16:41:03.013Z,78.30
2018-11-25T16:43:33.289Z,78.22
2018-11-25T16:46:03.909Z,78.39
2018-11-25T16:48:33.618Z,78.56
2018-11-25T16:51:04.391Z,78.57
2018-11-25T16:53:37.647Z,78.73
2018-11-25T16:56:07.558Z,78.60
2018-11-25T16:58:41.194Z,78.67
2018-11-25T17:01:13.988Z,78.71
2018-11-25T17:03:45.852Z,78.59
2018-11-25T17:06:18.118Z,78.58
2018-11-25T17:08:50.027Z,78.83
2018-11-25T17:11:19.776Z,78.84
2018-11-25T17:13:49.845Z,78.66
2018-11-25T17:16:19.813Z,78.66
2018-11-25T17:18:51.441Z,78.39
2018-11-25T17:21:22.594Z,78.39
2018-11-25T17:23:53.066Z,78.22
2018-11-25T17:26:24.765Z,78.04
2018-11-25T17:28:55.742Z,77.98
2018-11-25T17:31:25.810Z,78.26
2018-11-25T17:33:55.517Z,77.88
2018-11-25T17:36:25.551Z,77.71
2018-11-25T17:38:55.298Z,77.81
2018-11-25T17:41:25.090Z,77.67
2018-11-25T17:43:55.236Z,77.62
2018-11-25T17:46:24.777Z,77.51
2018-11-25T17:48:54.709Z,77.40
2018-11-25T17:51:24.716Z,77.29
2018-11-25T17:53:54.366Z,77.33
2018-11-25T17:56:25.900Z,77.23
2018-11-25T17:58:57.421Z,76.97
2018-11-25T18:01:27.044Z,77.00
2018-11-25T18:03:56.646Z,77.09
2018-11-25T18:06:27.713Z,77.05
2018-11-25T18:08:57.960Z,77.03
2018-11-25T18:11:28.147Z,76.88
2018-11-25T18:13:58.286Z,76.56
2018-11-25T18:16:28.408Z,76.83
2018-11-25T18:19:08.445Z,76.65
2018-11-25T18:21:38.229Z,76.81
2018-11-25T18:24:07.799Z,77.03
2018-11-25T18:26:37.366Z,76.85
2018-11-25T18:29:09.245Z,76.86
2018-11-25T18:31:39.659Z,76.64
2018-11-25T18:34:09.307Z,76.95
2018-11-25T18:36:39.406Z,76.84
2018-11-25T18:39:11.877Z,76.94
2018-11-25T18:41:41.652Z,76.93
2018-11-25T18:44:12.518Z,76.89
2018-11-25T18:46:47.607Z,77.41
2018-11-25T18:49:15.479Z,77.29
2018-11-25T18:51:46.631Z,77.26
2018-11-25T18:54:18.332Z,77.22
2018-11-25T18:56:48.283Z,77.40
2018-11-25T18:59:17.919Z,77.30
2018-11-25T19:01:54.275Z,77.23
2018-11-25T19:04:24.775Z,77.57
2018-11-25T19:06:54.499Z,77.53
2018-11-25T19:09:24.516Z,77.49
2018-11-25T19:11:55.147Z,77.40
2018-11-25T19:14:27.698Z,77.46
2018-11-25T19:16:57.830Z,77.60
2018-11-25T19:19:28.282Z,77.47
2018-11-25T19:21:59.007Z,77.52
2018-11-25T19:24:28.985Z,77.57
2018-11-25T19:26:59.523Z,77.53
2018-11-25T19:29:30.591Z,77.74
2018-11-25T19:32:00.635Z,77.37
2018-11-25T19:34:30.894Z,77.53
2018-11-25T19:37:01.585Z,77.30
2018-11-25T19:39:32.399Z,77.48
2018-11-25T19:42:02.918Z,77.47
2018-11-25T19:44:33.414Z,77.50
2018-11-25T19:47:04.018Z,77.41
2018-11-25T19:49:34.084Z,77.48
2018-11-25T19:52:04.402Z,77.81
2018-11-25T19:54:35.116Z,77.67
2018-11-25T19:57:05.176Z,77.46
2018-11-25T19:59:35.324Z,77.27
2018-11-25T20:02:05.758Z,77.63
2018-11-25T20:04:35.837Z,77.45
2018-11-25T20:07:06.431Z,77.50
2018-11-25T20:09:36.653Z,77.60
2018-11-25T20:12:06.921Z,77.33
2018-11-25T20:14:38.024Z,77.65
2018-11-25T20:17:12.969Z,77.35
2018-11-25T20:19:43.874Z,77.43
2018-11-25T20:22:19.135Z,77.47
2018-11-25T20:24:49.183Z,77.25
2018-11-25T20:28:45.376Z,76.99
2018-11-25T20:31:15.517Z,76.99
2018-11-25T20:33:52.409Z,77.20
2018-11-25T20:36:18.213Z,76.97
2018-11-25T20:38:53.799Z,77.15
2018-11-25T20:41:24.172Z,76.93
2018-11-25T20:43:55.120Z,77.06
2018-11-25T20:46:29.808Z,76.68
2018-11-25T20:49:00.951Z,76.88
2018-11-25T20:51:35.462Z,76.87
2018-11-25T20:54:05.274Z,76.78
2018-11-25T20:56:35.137Z,76.72
2018-11-25T20:59:05.252Z,76.69
2018-11-25T21:01:34.809Z,76.60
2018-11-25T21:04:05.240Z,76.71
2018-11-25T21:06:35.466Z,76.70
2018-11-25T21:09:06.556Z,76.77
2018-11-25T21:11:36.374Z,76.89
2018-11-25T21:14:06.165Z,76.98
2018-11-25T21:16:35.770Z,76.78
2018-11-25T21:19:05.797Z,76.78
2018-11-25T21:21:35.411Z,76.74
2018-11-25T21:24:06.941Z,76.57
2018-11-25T21:26:37.979Z,76.63
2018-11-25T21:29:07.573Z,76.74
2018-11-25T21:31:37.089Z,76.54
2018-11-25T21:34:08.553Z,76.65
2018-11-25T21:36:38.169Z,76.70
2018-11-25T21:39:11.198Z,76.41
2018-11-25T21:41:40.924Z,76.52
2018-11-25T21:44:10.717Z,76.70
2018-11-25T21:46:40.429Z,76.71
2018-11-25T21:49:12.328Z,76.59
2018-11-25T21:51:42.621Z,76.66
2018-11-25T21:54:14.941Z,76.73
2018-11-25T21:56:45.115Z,76.86
2018-11-25T21:59:15.399Z,77.02
2018-11-25T22:01:45.075Z,76.95
2018-11-25T22:04:15.443Z,76.82
2018-11-25T22:06:45.503Z,76.93
2018-11-25T22:09:15.637Z,77.16
2018-11-25T22:11:45.628Z,77.04
2018-11-25T22:14:15.888Z,76.96
2018-11-25T22:16:45.717Z,77.18
2018-11-25T22:19:15.695Z,77.11
2018-11-25T22:21:45.455Z,77.30
2018-11-25T22:24:15.450Z,77.32
2018-11-25T22:26:45.036Z,77.22
2018-11-25T22:29:14.789Z,77.33
2018-11-25T22:31:44.912Z,77.29
2018-11-25T22:34:15.734Z,77.11
2018-11-25T22:36:45.632Z,77.55
2018-11-25T22:39:16.915Z,77.50
2018-11-25T22:41:46.817Z,77.65
2018-11-25T22:44:16.462Z,77.58
2018-11-25T22:46:46.213Z,77.80
2018-11-25T22:49:16.680Z,77.80
2018-11-25T22:51:47.370Z,77.83
2018-11-25T22:54:17.686Z,77.91
2018-11-25T22:56:48.326Z,77.96
2018-11-25T22:59:18.253Z,78.15
2018-11-25T23:01:48.762Z,78.32
2018-11-25T23:06:35.017Z,78.32
2018-11-25T23:09:05.845Z,78.75
2018-11-25T23:11:36.006Z,78.55
2018-11-25T23:14:06.931Z,78.43
2018-11-25T23:16:36.740Z,78.47
2018-11-25T23:19:06.843Z,78.59
2018-11-25T23:21:36.788Z,78.42
2018-11-25T23:24:07.333Z,78.51
2018-11-25T23:26:37.416Z,78.44
2018-11-25T23:29:08.155Z,78.48
2018-11-25T23:31:38.738Z,78.31
2018-11-25T23:34:09.051Z,78.22
2018-11-25T23:36:39.438Z,77.98
2018-11-25T23:39:10.153Z,77.90
2018-11-25T23:41:40.035Z,77.78
2018-11-25T23:44:11.390Z,77.55
2018-11-25T23:46:41.253Z,77.45
2018-11-25T23:49:11.231Z,77.77
2018-11-25T23:51:41.378Z,77.58
2018-11-25T23:54:12.497Z,77.53
2018-11-25T23:56:44.472Z,77.68
2018-11-25T23:59:15.169Z,77.89
